sensor_id;sensor_type;location;lat;lon;timestamp;P1;durP1;ratioP1;P2;durP2;ratioP2
1691;SDS011;843;52.054;8.552;2024-01-27T00:02:22;17.73;;;5.90;;
1691;SDS011;843;52.054;8.552;2024-01-27T00:04:48;16.00;;;4.90;;
1691;SDS011;843;52.054;8.552;2024-01-27T00:07:15;12.37;;;4.90;;
1691;SDS011;843;52.054;8.552;2024-01-27T00:09:42;10.97;;;4.30;;
1691;SDS011;843;52.054;8.552;2024-01-27T00:12:09;20.27;;;5.40;;
1691;SDS011;843;52.054;8.552;2024-01-27T00:14:37;10.83;;;5.33;;
1691;SDS011;843;52.054;8.552;2024-01-27T00:17:04;14.17;;;4.47;;
1691;SDS011;843;52.054;8.552;2024-01-27T00:19:30;8.40;;;4.13;;
1691;SDS011;843;52.054;8.552;2024-01-27T00:21:57;16.20;;;4.87;;
1691;SDS011;843;52.054;8.552;2024-01-27T00:24:23;14.87;;;5.03;;
1691;SDS011;843;52.054;8.552;2024-01-27T00:26:51;26.03;;;5.40;;
1691;SDS011;843;52.054;8.552;2024-01-27T00:29:18;19.90;;;4.50;;
1691;SDS011;843;52.054;8.552;2024-01-27T00:31:44;19.63;;;4.47;;
1691;SDS011;843;52.054;8.552;2024-01-27T00:34:10;15.30;;;4.80;;
1691;SDS011;843;52.054;8.552;2024-01-27T00:36:37;21.43;;;4.57;;
1691;SDS011;843;52.054;8.552;2024-01-27T00:39:03;15.80;;;5.37;;
1691;SDS011;843;52.054;8.552;2024-01-27T00:41:31;12.90;;;4.17;;
1691;SDS011;843;52.054;8.552;2024-01-27T00:43:58;16.57;;;5.10;;
1691;SDS011;843;52.054;8.552;2024-01-27T00:46:25;12.50;;;5.00;;
1691;SDS011;843;52.054;8.552;2024-01-27T00:48:51;18.87;;;5.27;;
1691;SDS011;843;52.054;8.552;2024-01-27T00:51:18;15.60;;;5.40;;
1691;SDS011;843;52.054;8.552;2024-01-27T00:53:44;19.07;;;4.87;;
1691;SDS011;843;52.054;8.552;2024-01-27T00:56:10;13.73;;;4.30;;
1691;SDS011;843;52.054;8.552;2024-01-27T00:58:37;21.83;;;5.20;;
1691;SDS011;843;52.054;8.552;2024-01-27T01:01:05;19.83;;;6.10;;
1691;SDS011;843;52.054;8.552;2024-01-27T01:03:31;16.60;;;5.17;;
1691;SDS011;843;52.054;8.552;2024-01-27T01:05:57;14.17;;;3.97;;
1691;SDS011;843;52.054;8.552;2024-01-27T01:08:24;13.13;;;4.87;;
1691;SDS011;843;52.054;8.552;2024-01-27T01:10:50;12.87;;;4.47;;
1691;SDS011;843;52.054;8.552;2024-01-27T01:13:17;21.50;;;5.10;;
1691;SDS011;843;52.054;8.552;2024-01-27T01:15:43;13.73;;;4.57;;
1691;SDS011;843;52.054;8.552;2024-01-27T01:18:11;27.00;;;4.20;;
1691;SDS011;843;52.054;8.552;2024-01-27T01:20:37;11.63;;;4.30;;
1691;SDS011;843;52.054;8.552;2024-01-27T01:23:04;15.93;;;4.57;;
1691;SDS011;843;52.054;8.552;2024-01-27T01:25:30;22.90;;;6.10;;
1691;SDS011;843;52.054;8.552;2024-01-27T01:27:57;15.00;;;4.23;;
1691;SDS011;843;52.054;8.552;2024-01-27T01:30:23;17.33;;;4.87;;
1691;SDS011;843;52.054;8.552;2024-01-27T01:32:49;18.03;;;5.37;;
1691;SDS011;843;52.054;8.552;2024-01-27T01:35:18;15.37;;;5.10;;
1691;SDS011;843;52.054;8.552;2024-01-27T01:37:44;21.60;;;5.23;;
1691;SDS011;843;52.054;8.552;2024-01-27T01:40:13;14.10;;;6.00;;
1691;SDS011;843;52.054;8.552;2024-01-27T01:42:40;25.27;;;5.37;;
1691;SDS011;843;52.054;8.552;2024-01-27T01:45:07;15.43;;;5.20;;
1691;SDS011;843;52.054;8.552;2024-01-27T01:47:35;19.23;;;4.60;;
1691;SDS011;843;52.054;8.552;2024-01-27T01:50:02;10.27;;;4.77;;
1691;SDS011;843;52.054;8.552;2024-01-27T01:52:29;10.33;;;4.30;;
1691;SDS011;843;52.054;8.552;2024-01-27T01:54:56;26.90;;;4.50;;
1691;SDS011;843;52.054;8.552;2024-01-27T01:57:22;16.13;;;4.40;;
1691;SDS011;843;52.054;8.552;2024-01-27T01:59:49;14.97;;;5.03;;
1691;SDS011;843;52.054;8.552;2024-01-27T02:02:15;20.53;;;4.87;;
1691;SDS011;843;52.054;8.552;2024-01-27T02:04:41;11.87;;;3.90;;
1691;SDS011;843;52.054;8.552;2024-01-27T02:07:08;16.40;;;5.03;;
1691;SDS011;843;52.054;8.552;2024-01-27T02:09:36;20.60;;;5.00;;
1691;SDS011;843;52.054;8.552;2024-01-27T02:12:02;20.00;;;5.30;;
1691;SDS011;843;52.054;8.552;2024-01-27T02:14:29;15.73;;;4.57;;
1691;SDS011;843;52.054;8.552;2024-01-27T02:16:55;11.90;;;4.17;;
1691;SDS011;843;52.054;8.552;2024-01-27T02:19:21;23.93;;;4.70;;
1691;SDS011;843;52.054;8.552;2024-01-27T02:21:47;14.20;;;4.83;;
1691;SDS011;843;52.054;8.552;2024-01-27T02:24:15;18.83;;;5.23;;
1691;SDS011;843;52.054;8.552;2024-01-27T02:26:41;18.30;;;4.80;;
1691;SDS011;843;52.054;8.552;2024-01-27T02:29:08;16.03;;;4.87;;
1691;SDS011;843;52.054;8.552;2024-01-27T02:31:34;12.07;;;4.63;;
1691;SDS011;843;52.054;8.552;2024-01-27T02:34:00;12.40;;;6.00;;
1691;SDS011;843;52.054;8.552;2024-01-27T02:36:27;20.80;;;5.47;;
1691;SDS011;843;52.054;8.552;2024-01-27T02:38:53;14.43;;;4.77;;
1691;SDS011;843;52.054;8.552;2024-01-27T02:41:21;12.40;;;5.10;;
1691;SDS011;843;52.054;8.552;2024-01-27T02:43:47;16.87;;;6.23;;
1691;SDS011;843;52.054;8.552;2024-01-27T02:46:14;10.60;;;4.87;;
1691;SDS011;843;52.054;8.552;2024-01-27T02:48:41;18.83;;;5.30;;
1691;SDS011;843;52.054;8.552;2024-01-27T02:51:07;16.70;;;5.27;;
1691;SDS011;843;52.054;8.552;2024-01-27T02:53:34;14.20;;;5.73;;
1691;SDS011;843;52.054;8.552;2024-01-27T02:56:00;21.23;;;6.37;;
1691;SDS011;843;52.054;8.552;2024-01-27T02:58:28;18.87;;;5.83;;
1691;SDS011;843;52.054;8.552;2024-01-27T03:00:54;16.10;;;5.90;;
1691;SDS011;843;52.054;8.552;2024-01-27T03:03:21;16.37;;;4.90;;
1691;SDS011;843;52.054;8.552;2024-01-27T03:05:47;11.80;;;4.37;;
1691;SDS011;843;52.054;8.552;2024-01-27T03:08:14;14.53;;;5.23;;
1691;SDS011;843;52.054;8.552;2024-01-27T03:10:40;13.20;;;5.30;;
1691;SDS011;843;52.054;8.552;2024-01-27T03:13:06;20.27;;;5.50;;
1691;SDS011;843;52.054;8.552;2024-01-27T03:15:34;10.77;;;5.90;;
1691;SDS011;843;52.054;8.552;2024-01-27T03:18:02;14.30;;;5.50;;
1691;SDS011;843;52.054;8.552;2024-01-27T03:20:29;17.70;;;6.70;;
1691;SDS011;843;52.054;8.552;2024-01-27T03:22:56;14.93;;;5.70;;
1691;SDS011;843;52.054;8.552;2024-01-27T03:25:22;19.90;;;6.67;;
1691;SDS011;843;52.054;8.552;2024-01-27T03:27:50;16.63;;;5.87;;
1691;SDS011;843;52.054;8.552;2024-01-27T03:30:17;13.63;;;6.73;;
1691;SDS011;843;52.054;8.552;2024-01-27T03:32:45;18.43;;;6.00;;
1691;SDS011;843;52.054;8.552;2024-01-27T03:35:11;12.33;;;5.60;;
1691;SDS011;843;52.054;8.552;2024-01-27T03:37:37;19.03;;;6.20;;
1691;SDS011;843;52.054;8.552;2024-01-27T03:40:04;14.97;;;6.00;;
1691;SDS011;843;52.054;8.552;2024-01-27T03:42:31;14.13;;;6.80;;
1691;SDS011;843;52.054;8.552;2024-01-27T03:44:58;16.20;;;5.83;;
1691;SDS011;843;52.054;8.552;2024-01-27T03:47:25;11.07;;;6.47;;
1691;SDS011;843;52.054;8.552;2024-01-27T03:49:53;16.50;;;5.83;;
1691;SDS011;843;52.054;8.552;2024-01-27T03:52:19;17.63;;;7.77;;
1691;SDS011;843;52.054;8.552;2024-01-27T03:54:46;29.20;;;6.87;;
1691;SDS011;843;52.054;8.552;2024-01-27T03:57:12;12.70;;;6.40;;
1691;SDS011;843;52.054;8.552;2024-01-27T03:59:39;19.77;;;6.17;;
1691;SDS011;843;52.054;8.552;2024-01-27T04:02:06;20.37;;;7.10;;
1691;SDS011;843;52.054;8.552;2024-01-27T04:04:32;12.40;;;6.90;;
1691;SDS011;843;52.054;8.552;2024-01-27T04:07:00;23.37;;;7.50;;
1691;SDS011;843;52.054;8.552;2024-01-27T04:09:27;13.83;;;6.53;;
1691;SDS011;843;52.054;8.552;2024-01-27T04:11:53;14.77;;;7.37;;
1691;SDS011;843;52.054;8.552;2024-01-27T04:14:20;20.10;;;7.93;;
1691;SDS011;843;52.054;8.552;2024-01-27T04:16:46;17.63;;;7.77;;
1691;SDS011;843;52.054;8.552;2024-01-27T04:19:13;20.93;;;8.27;;
1691;SDS011;843;52.054;8.552;2024-01-27T04:21:39;15.73;;;7.00;;
1691;SDS011;843;52.054;8.552;2024-01-27T04:24:08;15.40;;;7.37;;
1691;SDS011;843;52.054;8.552;2024-01-27T04:26:35;17.70;;;7.70;;
1691;SDS011;843;52.054;8.552;2024-01-27T04:29:01;16.10;;;7.70;;
1691;SDS011;843;52.054;8.552;2024-01-27T04:31:28;16.33;;;6.90;;
1691;SDS011;843;52.054;8.552;2024-01-27T04:33:56;17.53;;;6.50;;
1691;SDS011;843;52.054;8.552;2024-01-27T04:36:26;17.70;;;7.40;;
1691;SDS011;843;52.054;8.552;2024-01-27T04:38:53;16.17;;;7.83;;
1691;SDS011;843;52.054;8.552;2024-01-27T04:41:21;14.67;;;7.80;;
1691;SDS011;843;52.054;8.552;2024-01-27T04:43:47;21.47;;;8.00;;
1691;SDS011;843;52.054;8.552;2024-01-27T04:46:14;17.17;;;8.30;;
1691;SDS011;843;52.054;8.552;2024-01-27T04:48:40;19.40;;;9.00;;
1691;SDS011;843;52.054;8.552;2024-01-27T04:51:06;17.30;;;8.63;;
1691;SDS011;843;52.054;8.552;2024-01-27T04:53:33;18.70;;;7.53;;
1691;SDS011;843;52.054;8.552;2024-01-27T04:55:59;21.20;;;7.93;;
1691;SDS011;843;52.054;8.552;2024-01-27T04:58:27;16.67;;;6.40;;
1691;SDS011;843;52.054;8.552;2024-01-27T05:00:53;18.67;;;7.90;;
1691;SDS011;843;52.054;8.552;2024-01-27T05:03:20;16.93;;;7.20;;
1691;SDS011;843;52.054;8.552;2024-01-27T05:05:46;26.20;;;8.23;;
1691;SDS011;843;52.054;8.552;2024-01-27T05:08:12;24.03;;;7.50;;
1691;SDS011;843;52.054;8.552;2024-01-27T05:10:39;15.10;;;7.67;;
1691;SDS011;843;52.054;8.552;2024-01-27T05:13:05;19.53;;;7.77;;
1691;SDS011;843;52.054;8.552;2024-01-27T05:15:33;18.00;;;8.00;;
1691;SDS011;843;52.054;8.552;2024-01-27T05:18:00;15.93;;;7.57;;
1691;SDS011;843;52.054;8.552;2024-01-27T05:20:26;15.03;;;8.20;;
1691;SDS011;843;52.054;8.552;2024-01-27T05:22:52;23.67;;;9.37;;
1691;SDS011;843;52.054;8.552;2024-01-27T05:25:19;22.30;;;8.20;;
1691;SDS011;843;52.054;8.552;2024-01-27T05:27:45;14.77;;;8.47;;
1691;SDS011;843;52.054;8.552;2024-01-27T05:30:12;15.83;;;8.60;;
1691;SDS011;843;52.054;8.552;2024-01-27T05:32:41;22.17;;;8.13;;
1691;SDS011;843;52.054;8.552;2024-01-27T05:35:07;24.23;;;9.00;;
1691;SDS011;843;52.054;8.552;2024-01-27T05:37:34;24.27;;;8.33;;
1691;SDS011;843;52.054;8.552;2024-01-27T05:40:00;18.07;;;8.30;;
1691;SDS011;843;52.054;8.552;2024-01-27T05:42:27;17.20;;;9.40;;
1691;SDS011;843;52.054;8.552;2024-01-27T05:44:54;16.97;;;8.50;;
1691;SDS011;843;52.054;8.552;2024-01-27T05:47:20;21.53;;;8.67;;
1691;SDS011;843;52.054;8.552;2024-01-27T05:49:48;12.60;;;8.40;;
1691;SDS011;843;52.054;8.552;2024-01-27T05:52:14;21.53;;;9.60;;
1691;SDS011;843;52.054;8.552;2024-01-27T05:54:41;16.30;;;9.50;;
1691;SDS011;843;52.054;8.552;2024-01-27T05:57:07;22.33;;;8.17;;
1691;SDS011;843;52.054;8.552;2024-01-27T05:59:33;28.33;;;8.97;;
1691;SDS011;843;52.054;8.552;2024-01-27T06:02:00;22.20;;;10.17;;
1691;SDS011;843;52.054;8.552;2024-01-27T06:04:26;16.03;;;9.43;;
1691;SDS011;843;52.054;8.552;2024-01-27T06:06:54;17.83;;;8.73;;
1691;SDS011;843;52.054;8.552;2024-01-27T06:09:20;20.93;;;9.73;;
1691;SDS011;843;52.054;8.552;2024-01-27T06:11:47;17.37;;;9.10;;
1691;SDS011;843;52.054;8.552;2024-01-27T06:14:13;14.97;;;9.50;;
1691;SDS011;843;52.054;8.552;2024-01-27T06:16:40;18.27;;;9.70;;
1691;SDS011;843;52.054;8.552;2024-01-27T06:19:06;24.03;;;9.33;;
1691;SDS011;843;52.054;8.552;2024-01-27T06:21:34;20.60;;;9.50;;
1691;SDS011;843;52.054;8.552;2024-01-27T06:24:02;20.83;;;10.20;;
1691;SDS011;843;52.054;8.552;2024-01-27T06:26:28;19.97;;;10.03;;
1691;SDS011;843;52.054;8.552;2024-01-27T06:28:54;21.40;;;10.50;;
1691;SDS011;843;52.054;8.552;2024-01-27T06:31:21;24.17;;;10.40;;
1691;SDS011;843;52.054;8.552;2024-01-27T06:33:47;19.33;;;10.20;;
1691;SDS011;843;52.054;8.552;2024-01-27T06:36:14;27.70;;;10.73;;
1691;SDS011;843;52.054;8.552;2024-01-27T06:38:39;22.93;;;11.67;;
1691;SDS011;843;52.054;8.552;2024-01-27T06:41:07;19.80;;;11.70;;
1691;SDS011;843;52.054;8.552;2024-01-27T06:43:33;21.40;;;10.90;;
1691;SDS011;843;52.054;8.552;2024-01-27T06:46:00;21.80;;;12.03;;
1691;SDS011;843;52.054;8.552;2024-01-27T06:48:26;28.40;;;11.70;;
1691;SDS011;843;52.054;8.552;2024-01-27T06:50:52;22.47;;;11.70;;
1691;SDS011;843;52.054;8.552;2024-01-27T06:53:19;18.03;;;11.77;;
1691;SDS011;843;52.054;8.552;2024-01-27T06:55:46;36.60;;;12.60;;
1691;SDS011;843;52.054;8.552;2024-01-27T06:58:13;23.97;;;11.23;;
1691;SDS011;843;52.054;8.552;2024-01-27T07:00:40;21.70;;;12.07;;
1691;SDS011;843;52.054;8.552;2024-01-27T07:03:06;19.47;;;12.03;;
1691;SDS011;843;52.054;8.552;2024-01-27T07:05:33;17.57;;;11.90;;
1691;SDS011;843;52.054;8.552;2024-01-27T07:08:04;30.97;;;12.30;;
1691;SDS011;843;52.054;8.552;2024-01-27T07:10:31;21.73;;;11.80;;
1691;SDS011;843;52.054;8.552;2024-01-27T07:12:57;23.83;;;12.60;;
1691;SDS011;843;52.054;8.552;2024-01-27T07:15:25;30.20;;;13.40;;
1691;SDS011;843;52.054;8.552;2024-01-27T07:17:52;16.80;;;12.03;;
1691;SDS011;843;52.054;8.552;2024-01-27T07:20:18;24.17;;;11.60;;
1691;SDS011;843;52.054;8.552;2024-01-27T07:22:46;24.30;;;12.03;;
1691;SDS011;843;52.054;8.552;2024-01-27T07:25:12;21.67;;;13.23;;
1691;SDS011;843;52.054;8.552;2024-01-27T07:27:39;27.77;;;13.43;;
1691;SDS011;843;52.054;8.552;2024-01-27T07:30:06;26.93;;;13.27;;
1691;SDS011;843;52.054;8.552;2024-01-27T07:32:35;31.00;;;13.73;;
1691;SDS011;843;52.054;8.552;2024-01-27T07:35:02;26.23;;;12.57;;
1691;SDS011;843;52.054;8.552;2024-01-27T07:37:30;27.00;;;12.57;;
1691;SDS011;843;52.054;8.552;2024-01-27T07:39:57;18.47;;;12.00;;
1691;SDS011;843;52.054;8.552;2024-01-27T07:42:23;17.97;;;11.07;;
1691;SDS011;843;52.054;8.552;2024-01-27T07:44:50;17.63;;;11.90;;
1691;SDS011;843;52.054;8.552;2024-01-27T07:47:16;20.80;;;12.93;;
1691;SDS011;843;52.054;8.552;2024-01-27T07:49:44;28.70;;;14.03;;
1691;SDS011;843;52.054;8.552;2024-01-27T07:52:10;28.50;;;13.43;;
1691;SDS011;843;52.054;8.552;2024-01-27T07:54:36;21.83;;;11.80;;
1691;SDS011;843;52.054;8.552;2024-01-27T07:57:05;25.80;;;12.60;;
1691;SDS011;843;52.054;8.552;2024-01-27T07:59:31;15.97;;;11.27;;
1691;SDS011;843;52.054;8.552;2024-01-27T08:01:58;24.57;;;11.70;;
1691;SDS011;843;52.054;8.552;2024-01-27T08:04:24;18.57;;;12.50;;
1691;SDS011;843;52.054;8.552;2024-01-27T08:06:52;19.03;;;11.70;;
1691;SDS011;843;52.054;8.552;2024-01-27T08:09:19;22.27;;;12.33;;
1691;SDS011;843;52.054;8.552;2024-01-27T08:11:45;18.07;;;13.37;;
1691;SDS011;843;52.054;8.552;2024-01-27T08:14:16;23.27;;;12.60;;
1691;SDS011;843;52.054;8.552;2024-01-27T08:16:43;19.47;;;13.30;;
1691;SDS011;843;52.054;8.552;2024-01-27T08:19:09;25.43;;;13.93;;
1691;SDS011;843;52.054;8.552;2024-01-27T08:21:35;21.60;;;13.40;;
1691;SDS011;843;52.054;8.552;2024-01-27T08:24:03;22.13;;;12.70;;
1691;SDS011;843;52.054;8.552;2024-01-27T08:26:30;26.60;;;14.20;;
1691;SDS011;843;52.054;8.552;2024-01-27T08:28:56;19.63;;;11.40;;
1691;SDS011;843;52.054;8.552;2024-01-27T08:31:23;20.27;;;12.47;;
1691;SDS011;843;52.054;8.552;2024-01-27T08:33:50;20.37;;;11.93;;
1691;SDS011;843;52.054;8.552;2024-01-27T08:36:17;17.73;;;12.10;;
1691;SDS011;843;52.054;8.552;2024-01-27T08:38:43;18.80;;;12.90;;
1691;SDS011;843;52.054;8.552;2024-01-27T08:41:11;17.77;;;10.90;;
1691;SDS011;843;52.054;8.552;2024-01-27T08:43:38;16.07;;;10.47;;
1691;SDS011;843;52.054;8.552;2024-01-27T08:46:04;14.50;;;11.40;;
1691;SDS011;843;52.054;8.552;2024-01-27T08:48:32;15.20;;;12.13;;
1691;SDS011;843;52.054;8.552;2024-01-27T08:50:59;17.83;;;12.60;;
1691;SDS011;843;52.054;8.552;2024-01-27T08:53:25;19.17;;;11.90;;
1691;SDS011;843;52.054;8.552;2024-01-27T08:55:51;15.00;;;12.50;;
1691;SDS011;843;52.054;8.552;2024-01-27T08:58:20;21.53;;;13.17;;
1691;SDS011;843;52.054;8.552;2024-01-27T09:00:46;13.63;;;11.37;;
1691;SDS011;843;52.054;8.552;2024-01-27T09:03:12;16.90;;;12.13;;
1691;SDS011;843;52.054;8.552;2024-01-27T09:05:39;16.77;;;12.17;;
1691;SDS011;843;52.054;8.552;2024-01-27T09:08:08;14.53;;;11.70;;
1691;SDS011;843;52.054;8.552;2024-01-27T09:10:35;19.70;;;13.63;;
1691;SDS011;843;52.054;8.552;2024-01-27T09:13:01;17.50;;;13.07;;
1691;SDS011;843;52.054;8.552;2024-01-27T09:15:29;20.23;;;12.17;;
1691;SDS011;843;52.054;8.552;2024-01-27T09:17:56;18.30;;;11.77;;
1691;SDS011;843;52.054;8.552;2024-01-27T09:20:22;16.73;;;11.77;;
1691;SDS011;843;52.054;8.552;2024-01-27T09:22:49;21.90;;;11.20;;
1691;SDS011;843;52.054;8.552;2024-01-27T09:25:15;18.70;;;12.87;;
1691;SDS011;843;52.054;8.552;2024-01-27T09:27:42;18.50;;;12.87;;
1691;SDS011;843;52.054;8.552;2024-01-27T09:30:09;19.87;;;13.27;;
1691;SDS011;843;52.054;8.552;2024-01-27T09:32:36;13.33;;;11.43;;
1691;SDS011;843;52.054;8.552;2024-01-27T09:35:03;18.03;;;11.80;;
1691;SDS011;843;52.054;8.552;2024-01-27T09:37:30;15.07;;;11.93;;
1691;SDS011;843;52.054;8.552;2024-01-27T09:39:57;16.07;;;12.67;;
1691;SDS011;843;52.054;8.552;2024-01-27T09:42:25;15.23;;;11.80;;
1691;SDS011;843;52.054;8.552;2024-01-27T09:44:52;15.70;;;12.27;;
1691;SDS011;843;52.054;8.552;2024-01-27T09:47:20;15.77;;;11.40;;
1691;SDS011;843;52.054;8.552;2024-01-27T09:49:48;16.67;;;14.13;;
1691;SDS011;843;52.054;8.552;2024-01-27T09:52:15;17.37;;;15.10;;
1691;SDS011;843;52.054;8.552;2024-01-27T09:54:41;20.03;;;14.93;;
1691;SDS011;843;52.054;8.552;2024-01-27T09:57:08;16.27;;;14.67;;
1691;SDS011;843;52.054;8.552;2024-01-27T09:59:35;21.30;;;16.30;;
1691;SDS011;843;52.054;8.552;2024-01-27T10:02:02;18.87;;;17.07;;
1691;SDS011;843;52.054;8.552;2024-01-27T10:04:30;21.27;;;15.30;;
1691;SDS011;843;52.054;8.552;2024-01-27T10:06:58;15.00;;;13.23;;
1691;SDS011;843;52.054;8.552;2024-01-27T10:09:25;21.80;;;13.40;;
1691;SDS011;843;52.054;8.552;2024-01-27T10:11:51;19.60;;;14.93;;
1691;SDS011;843;52.054;8.552;2024-01-27T10:14:19;20.97;;;14.70;;
1691;SDS011;843;52.054;8.552;2024-01-27T10:16:45;16.67;;;14.90;;
1691;SDS011;843;52.054;8.552;2024-01-27T10:19:12;16.77;;;15.00;;
1691;SDS011;843;52.054;8.552;2024-01-27T10:21:41;16.07;;;14.73;;
1691;SDS011;843;52.054;8.552;2024-01-27T10:24:08;16.97;;;14.93;;
1691;SDS011;843;52.054;8.552;2024-01-27T10:26:35;16.73;;;15.13;;
1691;SDS011;843;52.054;8.552;2024-01-27T10:29:01;17.60;;;15.83;;
1691;SDS011;843;52.054;8.552;2024-01-27T10:31:28;18.17;;;15.60;;
1691;SDS011;843;52.054;8.552;2024-01-27T10:33:55;19.00;;;17.00;;
1691;SDS011;843;52.054;8.552;2024-01-27T10:36:22;17.97;;;16.13;;
1691;SDS011;843;52.054;8.552;2024-01-27T10:38:49;19.77;;;16.97;;
1691;SDS011;843;52.054;8.552;2024-01-27T10:41:18;16.83;;;15.30;;
1691;SDS011;843;52.054;8.552;2024-01-27T10:43:47;17.10;;;15.30;;
1691;SDS011;843;52.054;8.552;2024-01-27T10:46:16;15.80;;;10.70;;
1691;SDS011;843;52.054;8.552;2024-01-27T10:48:44;15.80;;;14.17;;
1691;SDS011;843;52.054;8.552;2024-01-27T10:51:13;17.20;;;15.17;;
1691;SDS011;843;52.054;8.552;2024-01-27T10:53:42;17.37;;;15.53;;
1691;SDS011;843;52.054;8.552;2024-01-27T10:56:10;17.17;;;12.27;;
1691;SDS011;843;52.054;8.552;2024-01-27T10:58:38;12.50;;;9.83;;
1691;SDS011;843;52.054;8.552;2024-01-27T11:01:07;22.53;;;14.73;;
1691;SDS011;843;52.054;8.552;2024-01-27T11:03:35;11.30;;;9.50;;
1691;SDS011;843;52.054;8.552;2024-01-27T11:06:03;15.13;;;10.07;;
1691;SDS011;843;52.054;8.552;2024-01-27T11:08:30;12.67;;;9.40;;
1691;SDS011;843;52.054;8.552;2024-01-27T11:10:57;17.10;;;8.70;;
1691;SDS011;843;52.054;8.552;2024-01-27T11:13:24;16.10;;;14.60;;
1691;SDS011;843;52.054;8.552;2024-01-27T11:15:53;12.80;;;9.20;;
1691;SDS011;843;52.054;8.552;2024-01-27T11:18:20;15.77;;;14.30;;
1691;SDS011;843;52.054;8.552;2024-01-27T11:20:46;18.77;;;11.20;;
1691;SDS011;843;52.054;8.552;2024-01-27T11:23:12;19.07;;;10.13;;
1691;SDS011;843;52.054;8.552;2024-01-27T11:25:40;13.07;;;10.73;;
1691;SDS011;843;52.054;8.552;2024-01-27T11:28:13;15.37;;;9.33;;
1691;SDS011;843;52.054;8.552;2024-01-27T11:30:41;11.90;;;10.13;;
1691;SDS011;843;52.054;8.552;2024-01-27T11:33:12;18.20;;;10.57;;
1691;SDS011;843;52.054;8.552;2024-01-27T11:35:38;15.73;;;9.60;;
1691;SDS011;843;52.054;8.552;2024-01-27T11:38:05;12.73;;;10.20;;
1691;SDS011;843;52.054;8.552;2024-01-27T11:40:31;14.83;;;8.70;;
1691;SDS011;843;52.054;8.552;2024-01-27T11:42:58;16.33;;;9.90;;
1691;SDS011;843;52.054;8.552;2024-01-27T11:45:25;15.43;;;8.53;;
1691;SDS011;843;52.054;8.552;2024-01-27T11:47:53;17.30;;;9.10;;
1691;SDS011;843;52.054;8.552;2024-01-27T11:50:21;13.67;;;9.77;;
1691;SDS011;843;52.054;8.552;2024-01-27T11:52:49;10.63;;;8.53;;
1691;SDS011;843;52.054;8.552;2024-01-27T11:55:15;12.07;;;8.73;;
1691;SDS011;843;52.054;8.552;2024-01-27T11:57:44;20.83;;;11.10;;
1691;SDS011;843;52.054;8.552;2024-01-27T12:00:10;18.37;;;8.30;;
1691;SDS011;843;52.054;8.552;2024-01-27T12:02:37;11.73;;;8.30;;
1691;SDS011;843;52.054;8.552;2024-01-27T12:05:04;13.57;;;8.07;;
1691;SDS011;843;52.054;8.552;2024-01-27T12:07:32;14.30;;;8.30;;
1691;SDS011;843;52.054;8.552;2024-01-27T12:09:58;9.80;;;8.00;;
1691;SDS011;843;52.054;8.552;2024-01-27T12:12:25;11.07;;;7.60;;
1691;SDS011;843;52.054;8.552;2024-01-27T12:14:51;12.90;;;8.30;;
1691;SDS011;843;52.054;8.552;2024-01-27T12:17:18;12.53;;;8.40;;
1691;SDS011;843;52.054;8.552;2024-01-27T12:19:45;17.13;;;8.60;;
1691;SDS011;843;52.054;8.552;2024-01-27T12:22:20;17.43;;;7.40;;
1691;SDS011;843;52.054;8.552;2024-01-27T12:24:48;17.53;;;8.50;;
1691;SDS011;843;52.054;8.552;2024-01-27T12:27:15;11.50;;;8.53;;
1691;SDS011;843;52.054;8.552;2024-01-27T12:29:42;12.37;;;6.93;;
1691;SDS011;843;52.054;8.552;2024-01-27T12:32:08;10.87;;;7.80;;
1691;SDS011;843;52.054;8.552;2024-01-27T12:34:39;12.80;;;7.43;;
1691;SDS011;843;52.054;8.552;2024-01-27T12:37:05;10.70;;;7.13;;
1691;SDS011;843;52.054;8.552;2024-01-27T12:39:33;9.37;;;6.90;;
1691;SDS011;843;52.054;8.552;2024-01-27T12:42:01;16.73;;;8.30;;
1691;SDS011;843;52.054;8.552;2024-01-27T12:44:27;15.17;;;7.10;;
1691;SDS011;843;52.054;8.552;2024-01-27T12:46:54;11.53;;;6.90;;
1691;SDS011;843;52.054;8.552;2024-01-27T12:49:20;16.17;;;7.77;;
1691;SDS011;843;52.054;8.552;2024-01-27T12:51:47;13.97;;;6.77;;
1691;SDS011;843;52.054;8.552;2024-01-27T12:54:13;14.37;;;6.93;;
1691;SDS011;843;52.054;8.552;2024-01-27T12:56:41;18.20;;;7.60;;
1691;SDS011;843;52.054;8.552;2024-01-27T12:59:09;16.30;;;8.30;;
1691;SDS011;843;52.054;8.552;2024-01-27T13:01:35;13.20;;;7.70;;
1691;SDS011;843;52.054;8.552;2024-01-27T13:04:02;13.10;;;9.03;;
1691;SDS011;843;52.054;8.552;2024-01-27T13:06:28;8.00;;;7.23;;
1691;SDS011;843;52.054;8.552;2024-01-27T13:08:55;14.60;;;8.13;;
1691;SDS011;843;52.054;8.552;2024-01-27T13:11:21;11.30;;;6.40;;
1691;SDS011;843;52.054;8.552;2024-01-27T13:13:48;13.53;;;7.77;;
1691;SDS011;843;52.054;8.552;2024-01-27T13:16:15;13.67;;;7.17;;
1691;SDS011;843;52.054;8.552;2024-01-27T13:18:42;11.60;;;7.00;;
1691;SDS011;843;52.054;8.552;2024-01-27T13:21:09;12.17;;;7.80;;
1691;SDS011;843;52.054;8.552;2024-01-27T13:23:36;9.40;;;7.40;;
1691;SDS011;843;52.054;8.552;2024-01-27T13:26:02;13.30;;;6.80;;
1691;SDS011;843;52.054;8.552;2024-01-27T13:28:29;9.50;;;6.77;;
1691;SDS011;843;52.054;8.552;2024-01-27T13:30:55;15.27;;;7.87;;
1691;SDS011;843;52.054;8.552;2024-01-27T13:33:24;12.50;;;8.30;;
1691;SDS011;843;52.054;8.552;2024-01-27T13:35:50;14.07;;;7.97;;
1691;SDS011;843;52.054;8.552;2024-01-27T13:38:17;15.83;;;7.30;;
1691;SDS011;843;52.054;8.552;2024-01-27T13:40:48;15.73;;;8.33;;
1691;SDS011;843;52.054;8.552;2024-01-27T13:43:14;13.97;;;7.60;;
1691;SDS011;843;52.054;8.552;2024-01-27T13:45:41;14.27;;;7.10;;
1691;SDS011;843;52.054;8.552;2024-01-27T13:48:08;10.53;;;7.30;;
1691;SDS011;843;52.054;8.552;2024-01-27T13:50:36;19.90;;;7.33;;
1691;SDS011;843;52.054;8.552;2024-01-27T13:53:02;11.20;;;6.93;;
1691;SDS011;843;52.054;8.552;2024-01-27T13:55:30;16.00;;;7.57;;
1691;SDS011;843;52.054;8.552;2024-01-27T13:57:57;15.30;;;7.20;;
1691;SDS011;843;52.054;8.552;2024-01-27T14:00:23;14.67;;;7.00;;
1691;SDS011;843;52.054;8.552;2024-01-27T14:02:50;14.20;;;7.90;;
1691;SDS011;843;52.054;8.552;2024-01-27T14:05:16;10.77;;;6.33;;
1691;SDS011;843;52.054;8.552;2024-01-27T14:07:44;11.60;;;7.00;;
1691;SDS011;843;52.054;8.552;2024-01-27T14:10:10;11.87;;;6.97;;
1691;SDS011;843;52.054;8.552;2024-01-27T14:12:37;12.13;;;6.57;;
1691;SDS011;843;52.054;8.552;2024-01-27T14:15:03;9.80;;;7.03;;
1691;SDS011;843;52.054;8.552;2024-01-27T14:17:31;16.93;;;7.27;;
1691;SDS011;843;52.054;8.552;2024-01-27T14:19:58;14.13;;;6.60;;
1691;SDS011;843;52.054;8.552;2024-01-27T14:22:24;8.83;;;6.60;;
1691;SDS011;843;52.054;8.552;2024-01-27T14:24:52;12.70;;;7.57;;
1691;SDS011;843;52.054;8.552;2024-01-27T14:27:19;20.43;;;8.87;;
1691;SDS011;843;52.054;8.552;2024-01-27T14:29:50;13.23;;;7.20;;
1691;SDS011;843;52.054;8.552;2024-01-27T14:32:17;12.90;;;6.90;;
1691;SDS011;843;52.054;8.552;2024-01-27T14:34:43;12.53;;;7.57;;
1691;SDS011;843;52.054;8.552;2024-01-27T14:37:10;11.77;;;7.23;;
1691;SDS011;843;52.054;8.552;2024-01-27T14:39:36;10.07;;;6.97;;
1691;SDS011;843;52.054;8.552;2024-01-27T14:42:04;15.17;;;7.53;;
1691;SDS011;843;52.054;8.552;2024-01-27T14:44:33;9.57;;;6.73;;
1691;SDS011;843;52.054;8.552;2024-01-27T14:46:59;8.13;;;6.60;;
1691;SDS011;843;52.054;8.552;2024-01-27T14:49:26;7.60;;;6.70;;
1691;SDS011;843;52.054;8.552;2024-01-27T14:51:53;17.50;;;7.93;;
1691;SDS011;843;52.054;8.552;2024-01-27T14:54:20;15.33;;;6.53;;
1691;SDS011;843;52.054;8.552;2024-01-27T14:56:46;12.57;;;7.50;;
1691;SDS011;843;52.054;8.552;2024-01-27T14:59:14;8.20;;;6.90;;
1691;SDS011;843;52.054;8.552;2024-01-27T15:01:41;12.07;;;6.80;;
1691;SDS011;843;52.054;8.552;2024-01-27T15:04:07;19.93;;;9.33;;
1691;SDS011;843;52.054;8.552;2024-01-27T15:06:34;16.20;;;13.30;;
1691;SDS011;843;52.054;8.552;2024-01-27T15:09:00;17.77;;;14.97;;